createdAt,value
2024-02-13T00:01:48.899Z,98298.31
2024-02-13T00:07:02.224Z,98313.69
2024-02-13T00:12:08.341Z,98305.47
2024-02-13T00:17:17.524Z,98317.06
2024-02-13T00:22:34.374Z,98315.97
2024-02-13T00:27:41.514Z,98321.03
2024-02-13T00:32:49.236Z,98332.91
2024-02-13T00:37:57.236Z,98340.47
2024-02-13T00:43:02.759Z,98343.97
2024-02-13T00:48:11.837Z,98343.22
2024-02-13T00:53:20.333Z,98364.47
2024-02-13T00:58:25.506Z,98358.69
2024-02-13T01:03:30.966Z,98366.41
2024-02-13T01:08:40.214Z,98372.44
2024-02-13T01:13:45.331Z,98379.28
2024-02-13T01:18:53.609Z,98370.19
2024-02-13T01:24:04.081Z,98385.66
2024-02-13T01:29:10.405Z,98378.88
2024-02-13T01:34:15.896Z,98379.84
2024-02-13T01:39:25.713Z,98388.69
2024-02-13T01:44:31.107Z,98399.50
2024-02-13T01:49:38.862Z,98392.59
2024-02-13T01:54:48.057Z,98402.63
2024-02-13T01:59:53.509Z,98408.69
2024-02-13T02:05:00.672Z,98417.13
2024-02-13T02:10:11.870Z,98406.50
2024-02-13T02:15:18.122Z,98421.59
2024-02-13T02:20:23.994Z,98426.28
2024-02-13T02:25:35.434Z,98435.41
2024-02-13T02:30:43.911Z,98445.59
2024-02-13T02:35:57.320Z,98438.31
2024-02-13T02:41:13.621Z,98448.28
2024-02-13T02:46:23.653Z,98452.00
2024-02-13T02:51:30.017Z,98455.25
2024-02-13T02:56:38.966Z,98468.31
2024-02-13T03:01:44.351Z,98481.47
2024-02-13T03:06:49.586Z,98485.72
2024-02-13T03:11:57.698Z,98507.22
2024-02-13T03:17:03.376Z,98502.00
2024-02-13T03:22:10.337Z,98512.56
2024-02-13T03:27:18.712Z,98513.59
2024-02-13T03:32:24.094Z,98536.34
2024-02-13T03:37:29.357Z,98531.00
2024-02-13T03:42:37.773Z,98537.84
2024-02-13T03:47:43.393Z,98555.84
2024-02-13T03:52:49.104Z,98568.41
2024-02-13T03:57:59.153Z,98563.72
2024-02-13T04:03:04.708Z,98569.50
2024-02-13T04:08:10.920Z,98593.81
2024-02-13T04:13:19.372Z,98593.22
2024-02-13T04:18:25.154Z,98595.88
2024-02-13T04:23:31.553Z,98604.84
2024-02-13T04:28:41.222Z,98622.78
2024-02-13T04:33:47.227Z,98625.16
2024-02-13T04:38:52.879Z,98615.97
2024-02-13T04:44:01.236Z,98622.81
2024-02-13T04:49:07.104Z,98631.25
2024-02-13T04:54:12.730Z,98644.97
2024-02-13T04:59:22.910Z,98652.94
2024-02-13T05:04:40.763Z,98660.88
2024-02-13T05:09:46.664Z,98673.06
2024-02-13T05:14:54.833Z,98671.72
2024-02-13T05:20:01.504Z,98673.09
2024-02-13T05:25:09.766Z,98674.16
2024-02-13T05:30:19.830Z,98683.34
2024-02-13T05:35:26.667Z,98697.34
2024-02-13T05:40:32.215Z,98703.19
2024-02-13T05:45:40.851Z,98713.72
2024-02-13T05:50:46.390Z,98727.44
2024-02-13T05:55:55.760Z,98730.03
2024-02-13T06:01:08.963Z,98739.59
2024-02-13T06:06:17.542Z,98745.13
2024-02-13T06:11:33.219Z,98765.19
2024-02-13T06:16:41.497Z,98772.84
2024-02-13T06:21:46.988Z,98773.34
2024-02-13T06:26:55.096Z,98788.41
2024-02-13T06:32:08.273Z,98791.59
2024-02-13T06:37:15.221Z,98805.03
2024-02-13T06:42:20.640Z,98814.03
2024-02-13T06:47:35.366Z,98814.81
2024-02-13T06:52:42.931Z,98835.94
2024-02-13T06:57:49.181Z,98829.34
2024-02-13T07:03:11.262Z,98834.63
2024-02-13T07:08:17.754Z,98843.31
2024-02-13T07:13:50.734Z,98844.09
2024-02-13T07:19:03.147Z,98848.09
2024-02-13T07:24:10.598Z,98876.88
2024-02-13T07:29:23.983Z,98858.91
2024-02-13T07:34:38.570Z,98874.47
2024-02-13T07:39:44.509Z,98872.91
2024-02-13T07:44:52.631Z,98887.66
2024-02-13T07:50:01.430Z,98891.63
2024-02-13T07:55:07.519Z,98883.72
2024-02-13T08:00:16.638Z,98906.41
2024-02-13T08:05:24.843Z,98917.53
2024-02-13T08:10:34.161Z,98916.44
2024-02-13T08:16:14.862Z,98911.69
2024-02-13T08:21:28.447Z,98900.06
2024-02-13T08:26:33.967Z,98908.47
2024-02-13T08:31:47.240Z,98907.63
2024-02-13T08:37:01.148Z,98909.41
2024-02-13T08:42:09.316Z,98911.44
2024-02-13T08:47:16.557Z,98923.13
2024-02-13T08:52:26.964Z,98921.47
2024-02-13T08:57:34.872Z,98927.03
2024-02-13T09:02:51.342Z,98927.53
2024-02-13T09:08:11.355Z,98937.59
2024-02-13T09:13:18.713Z,98944.78
2024-02-13T09:18:27.887Z,98949.56
2024-02-13T09:23:36.948Z,98949.78
2024-02-13T09:28:55.180Z,98953.41
2024-02-13T09:34:09.812Z,98960.28
2024-02-13T09:39:18.852Z,98958.38
2024-02-13T09:44:24.911Z,98964.06
2024-02-13T09:49:38.108Z,98973.88
2024-02-13T09:54:52.170Z,98971.50
2024-02-13T10:00:02.819Z,98977.25
2024-02-13T10:05:12.180Z,98991.38
2024-02-13T10:10:20.812Z,98977.28
2024-02-13T10:15:43.902Z,98989.19
2024-02-13T10:20:50.424Z,98981.50
2024-02-13T10:25:58.324Z,98988.56
2024-02-13T10:31:03.563Z,98991.69
2024-02-13T10:36:10.023Z,98992.16
2024-02-13T10:41:24.965Z,98992.22
2024-02-13T10:46:43.676Z,98981.75
2024-02-13T10:52:03.418Z,98993.97
2024-02-13T11:03:06.666Z,98981.91
2024-02-13T11:08:20.962Z,98975.31
2024-02-13T11:13:33.567Z,98963.69
2024-02-13T11:18:47.729Z,98966.06
2024-02-13T11:24:02.660Z,98963.56
2024-02-13T11:29:25.240Z,98972.28
2024-02-13T11:34:46.254Z,98973.06
2024-02-13T11:45:27.906Z,98978.47
2024-02-13T11:50:37.523Z,98986.94
2024-02-13T11:55:44.463Z,98991.88
2024-02-13T12:01:06.188Z,98990.94
2024-02-13T12:06:11.572Z,98986.66
2024-02-13T12:11:19.489Z,98981.53
2024-02-13T12:16:29.797Z,98990.38
2024-02-13T12:21:34.877Z,98985.97
2024-02-13T12:26:41.026Z,98989.84
2024-02-13T12:32:02.489Z,98984.69
2024-02-13T12:37:13.012Z,98988.88
2024-02-13T12:42:19.045Z,98968.41
2024-02-13T12:47:27.117Z,98971.19
2024-02-13T12:52:33.245Z,98982.31
2024-02-13T12:57:38.273Z,98984.88
2024-02-13T13:02:46.122Z,98974.94
2024-02-13T13:07:52.710Z,98975.44
2024-02-13T13:12:58.993Z,98976.97
2024-02-13T13:18:12.787Z,98986.41
2024-02-13T13:23:22.695Z,98977.28
2024-02-13T13:28:30.301Z,98977.00
2024-02-13T13:33:40.741Z,98977.47
2024-02-13T13:38:47.536Z,98975.66
2024-02-13T13:43:52.651Z,98981.00
2024-02-13T13:49:09.400Z,98987.84
2024-02-13T13:54:16.691Z,98991.41
2024-02-13T13:59:23.549Z,99003.19
2024-02-13T14:04:32.943Z,99004.00
2024-02-13T14:09:38.533Z,99011.56
2024-02-13T14:14:43.899Z,99021.19
2024-02-13T14:19:56.455Z,98998.31
2024-02-13T14:25:04.988Z,99004.34
2024-02-13T14:30:12.072Z,99018.97
2024-02-13T14:35:39.873Z,99015.25
2024-02-13T14:40:50.540Z,99024.94
2024-02-13T14:46:00.146Z,99042.75
2024-02-13T14:51:08.438Z,99041.47
2024-02-13T14:56:14.781Z,99041.25
2024-02-13T15:01:20.124Z,99048.00
2024-02-13T15:06:33.052Z,99047.38
2024-02-13T15:11:39.761Z,99038.09
2024-02-13T15:16:49.846Z,99045.75
2024-02-13T15:21:57.650Z,99043.72
2024-02-13T15:27:07.319Z,99053.09
2024-02-13T15:32:15.663Z,99049.13
2024-02-13T15:37:50.588Z,99056.91
2024-02-13T15:43:13.744Z,99050.13
2024-02-13T15:48:21.129Z,99059.50
2024-02-13T15:53:32.312Z,99057.81
2024-02-13T15:58:38.518Z,99062.28
2024-02-13T16:03:44.664Z,99067.94
2024-02-13T16:08:54.839Z,99070.44
2024-02-13T16:14:10.138Z,99073.59
2024-02-13T16:19:16.049Z,99085.13
2024-02-13T16:24:23.970Z,99082.16
2024-02-13T16:29:29.107Z,99086.94
2024-02-13T16:34:38.814Z,99095.31
2024-02-13T16:39:49.118Z,99097.81
2024-02-13T16:44:56.663Z,99106.66
2024-02-13T16:50:03.244Z,99115.00
2024-02-13T16:55:12.184Z,99110.75
2024-02-13T17:00:20.745Z,99125.38
2024-02-13T17:05:26.479Z,99121.56
2024-02-13T17:10:34.938Z,99114.94
2024-02-13T17:15:40.233Z,99129.41
2024-02-13T17:20:45.973Z,99127.47
2024-02-13T17:25:57.307Z,99131.91
2024-02-13T17:31:02.470Z,99135.09
2024-02-13T17:36:13.222Z,99123.75
2024-02-13T17:41:28.852Z,99137.03
2024-02-13T17:46:34.028Z,99137.41
2024-02-13T17:51:42.015Z,99141.63
2024-02-13T17:56:54.025Z,99144.13
2024-02-13T18:01:59.960Z,99150.16
2024-02-13T18:07:05.596Z,99160.03
2024-02-13T18:12:13.606Z,99162.66
2024-02-13T18:17:21.993Z,99152.81
2024-02-13T18:22:27.240Z,99155.06
2024-02-13T18:27:34.858Z,99160.09
2024-02-13T18:32:42.758Z,99170.38
2024-02-13T18:37:48.124Z,99165.06
2024-02-13T18:42:56.614Z,99165.25
2024-02-13T18:48:02.732Z,99166.09
2024-02-13T18:53:12.822Z,99165.91
2024-02-13T18:58:21.638Z,99173.28
2024-02-13T19:03:32.071Z,99174.34
2024-02-13T19:08:48.966Z,99173.56
2024-02-13T19:14:00.648Z,99175.94
2024-02-13T19:19:09.125Z,99171.69
2024-02-13T19:24:29.169Z,99177.00
2024-02-13T19:29:40.521Z,99186.81
2024-02-13T19:34:46.272Z,99182.53
2024-02-13T19:39:54.052Z,99179.81
2024-02-13T19:45:07.952Z,99184.03
2024-02-13T19:55:38.722Z,99205.28
2024-02-13T20:00:47.147Z,99207.53
2024-02-13T20:05:54.449Z,99225.28
2024-02-13T20:11:03.313Z,99227.84
2024-02-13T20:16:12.718Z,99217.47
2024-02-13T20:21:22.687Z,99218.50
2024-02-13T20:26:28.313Z,99210.19
2024-02-13T20:31:36.866Z,99198.34
2024-02-13T20:36:42.558Z,99203.81
2024-02-13T20:41:48.995Z,99198.41
2024-02-13T20:46:58.031Z,99203.81
2024-02-13T20:52:03.236Z,99206.84
2024-02-13T20:57:10.306Z,99210.19
2024-02-13T21:02:18.711Z,99203.81
2024-02-13T21:07:26.444Z,99212.31
2024-02-13T21:12:32.338Z,99209.84
2024-02-13T21:17:46.991Z,99212.84
2024-02-13T21:23:11.160Z,99212.72
2024-02-13T21:28:16.340Z,99211.13
2024-02-13T21:33:27.656Z,99209.53
2024-02-13T21:38:36.095Z,99203.34
2024-02-13T21:43:41.394Z,99208.31
2024-02-13T21:48:50.893Z,99203.34
2024-02-13T21:53:56.307Z,99199.53
2024-02-13T21:59:06.163Z,99201.09
2024-02-13T22:04:16.318Z,99200.34
2024-02-13T22:09:23.831Z,99200.69
2024-02-13T22:14:29.479Z,99206.44
2024-02-13T22:19:37.548Z,99201.13
2024-02-13T22:24:42.639Z,99203.94
2024-02-13T22:29:50.147Z,99205.59
2024-02-13T22:34:59.014Z,99202.28
2024-02-13T22:40:04.563Z,99193.03
2024-02-13T22:45:12.072Z,99202.47
2024-02-13T22:50:21.883Z,99212.72
2024-02-13T22:55:27.047Z,99212.56
2024-02-13T23:00:50.742Z,99218.06
2024-02-13T23:06:00.703Z,99210.09
2024-02-13T23:11:08.821Z,99211.59
2024-02-13T23:16:14.580Z,99222.53
2024-02-13T23:21:22.997Z,99208.97
2024-02-13T23:26:28.158Z,99211.16
2024-02-13T23:31:34.227Z,99203.78
2024-02-13T23:36:41.840Z,99202.81
2024-02-13T23:41:47.325Z,99199.84
2024-02-13T23:46:57.150Z,99205.09
2024-02-13T23:52:04.845Z,99210.88
2024-02-13T23:57:10.947Z,99220.69
